Time;durP1;ratioP1;P1;durP2;ratioP2;P2;SDS_P1;SDS_P2;PMS_P1;PMS_P2;Temp;Humidity;BMP_temperature;BMP_pressure;BME280_temperature;BME280_humidity;BME280_pressure;Samples;Min_cycle;Max_cycle;Signal;HPM_P1;HPM_P2
2023/11/04 00:00:31;;;;;;;1.10;0.87;;;;;;;-145.69;59.41;52295.84;5094257;28;20202;-80
2023/11/04 00:02:57;;;;;;;1.97;1.30;;;;;;;-145.69;59.49;52337.44;5094452;28;20201;-80
2023/11/04 00:05:24;;;;;;;1.17;1.07;;;;;;;-145.69;59.31;52272.09;5100302;28;20576;-83
2023/11/04 00:07:51;;;;;;;1.80;0.90;;;;;;;-145.69;58.99;52280.00;5114241;28;20193;-80
2023/11/04 00:10:18;;;;;;;1.20;1.10;;;;;;;-145.69;56.98;52319.63;5114227;28;20197;-81
2023/11/04 00:12:44;;;;;;;1.17;0.80;;;;;;;-145.69;58.41;52309.72;5114356;28;20209;-82
2023/11/04 00:15:10;;;;;;;1.37;0.90;;;;;;;-145.69;58.52;52262.19;5114333;27;20198;-80
2023/11/04 00:17:38;;;;;;;1.50;0.90;;;;;;;-145.69;57.91;52287.94;5114456;28;20225;-80
2023/11/04 00:20:07;;;;;;;1.60;1.03;;;;;;;-145.69;57.77;52274.06;5114494;28;20193;-80
2023/11/04 00:22:34;;;;;;;3.03;0.80;;;;;;;-145.69;56.96;52268.13;5114432;28;20196;-80
2023/11/04 00:25:00;;;;;;;1.97;0.70;;;;;;;-145.69;57.08;52293.88;5114197;28;20212;-80
2023/11/04 00:27:27;;;;;;;1.10;0.60;;;;;;;-145.69;56.76;52297.84;5114237;28;20200;-80
2023/11/04 00:29:53;;;;;;;0.70;0.70;;;;;;;-145.69;56.40;52250.31;5114235;28;20197;-81
2023/11/04 00:32:22;;;;;;;1.00;0.70;;;;;;;-145.69;55.79;52297.84;5112765;28;20225;-81
2023/11/04 00:34:50;;;;;;;1.17;0.80;;;;;;;-145.69;56.00;52270.13;5112396;28;20212;-80
2023/11/04 00:37:16;;;;;;;0.70;0.70;;;;;;;-145.69;55.82;52282.00;5113584;28;20248;-82
2023/11/04 00:39:43;;;;;;;0.93;0.70;;;;;;;-145.69;55.72;52266.16;5113945;28;20248;-83
2023/11/04 00:42:09;;;;;;;0.63;0.63;;;;;;;-145.69;55.94;52266.16;5113808;28;20198;-80
2023/11/04 00:44:36;;;;;;;0.80;0.80;;;;;;;-145.69;55.11;52260.22;5113909;28;20201;-82
2023/11/04 00:47:02;;;;;;;1.30;0.67;;;;;;;-145.69;54.72;52274.06;5113915;28;20193;-81
2023/11/04 00:49:29;;;;;;;0.83;0.70;;;;;;;-145.69;55.17;52270.13;5113948;28;20206;-81
2023/11/04 00:51:56;;;;;;;0.60;0.60;;;;;;;-145.69;54.65;52246.34;5113823;28;20201;-81
2023/11/04 00:54:23;;;;;;;0.60;0.60;;;;;;;-145.69;55.13;52274.06;5113205;28;20197;-81
2023/11/04 00:56:49;;;;;;;2.30;0.60;;;;;;;-145.69;55.31;52246.34;5113594;28;20480;-80
2023/11/04 00:59:16;;;;;;;1.10;0.57;;;;;;;-145.69;55.37;52262.19;5113620;28;20194;-83
2023/11/04 01:01:43;;;;;;;0.60;0.60;;;;;;;-145.69;55.36;52315.66;5113743;28;20201;-81
2023/11/04 01:04:10;;;;;;;0.60;0.60;;;;;;;-145.69;55.64;52264.16;5113613;28;20279;-81
2023/11/04 01:06:36;;;;;;;0.90;0.60;;;;;;;-145.69;55.21;52282.00;5112534;28;20221;-80
2023/11/04 01:09:05;;;;;;;0.70;0.70;;;;;;;-145.69;55.63;52250.31;5113107;28;20208;-80
2023/11/04 01:11:31;;;;;;;1.27;0.67;;;;;;;-145.69;55.54;52278.03;5112764;28;20537;-80
2023/11/04 01:13:58;;;;;;;0.60;0.60;;;;;;;-145.69;54.85;52268.13;5113217;28;20194;-80
2023/11/04 01:16:25;;;;;;;2.83;0.50;;;;;;;-145.69;55.18;52287.94;5113315;28;20205;-80
2023/11/04 01:18:51;;;;;;;0.50;0.40;;;;;;;-145.69;55.59;52282.00;5113450;28;20193;-82
2023/11/04 01:21:18;;;;;;;0.90;0.60;;;;;;;-145.69;55.51;52272.09;5113086;28;20731;-80
2023/11/04 01:23:44;;;;;;;0.93;0.70;;;;;;;-145.69;55.59;52293.88;5113389;28;20767;-80
2023/11/04 01:26:12;;;;;;;0.50;0.50;;;;;;;-145.69;55.48;52303.78;5113238;28;20193;-80
2023/11/04 01:28:39;;;;;;;0.83;0.50;;;;;;;-145.69;55.82;52266.16;5113508;28;20239;-81
2023/11/04 01:31:05;;;;;;;0.83;0.70;;;;;;;-145.69;56.69;52293.88;5113266;28;20197;-81
2023/11/04 01:33:32;;;;;;;0.63;0.60;;;;;;;-145.69;55.84;52266.16;5113274;28;20197;-81
2023/11/04 01:35:58;;;;;;;0.73;0.57;;;;;;;-145.69;57.05;52293.88;5113271;28;20197;-80
2023/11/04 01:38:25;;;;;;;2.43;0.70;;;;;;;-145.69;57.10;52270.13;5113069;28;20235;-80
2023/11/04 01:40:54;;;;;;;1.57;0.70;;;;;;;-145.69;56.90;52260.22;5113371;28;20204;-80
2023/11/04 01:43:27;;;;;;;0.77;0.50;;;;;;;-145.69;56.97;52262.19;5113059;28;20193;-82
2023/11/04 01:46:14;;;;;;;0.70;0.70;;;;;;;-145.69;56.90;52252.28;5111263;28;20201;-82
2023/11/04 01:48:42;;;;;;;1.00;0.77;;;;;;;-145.69;57.53;52270.13;5113109;28;20197;-81
2023/11/04 01:51:09;;;;;;;1.40;0.70;;;;;;;-145.69;58.10;52293.88;5113157;28;20197;-82
2023/11/04 01:53:37;;;;;;;0.97;0.70;;;;;;;-145.69;58.53;52285.97;5113344;28;20571;-81
2023/11/04 01:56:06;;;;;;;1.23;0.70;;;;;;;-145.69;58.42;52289.91;5112881;28;20194;-79
2023/11/04 01:58:35;;;;;;;0.70;0.70;;;;;;;-145.69;58.95;52258.22;5112683;28;20234;-80
2023/11/04 02:01:03;;;;;;;0.80;0.80;;;;;;;-145.69;59.10;52282.00;5110403;28;20200;-81
2023/11/04 02:03:30;;;;;;;1.13;0.60;;;;;;;-145.69;58.55;52285.97;5112923;28;20241;-80
2023/11/04 02:05:56;;;;;;;2.60;1.00;;;;;;;-145.69;58.53;52319.63;5114627;28;20268;-81
2023/11/04 02:08:23;;;;;;;1.20;0.80;;;;;;;-145.69;58.47;52256.25;5116769;28;20532;-80
2023/11/04 02:10:50;;;;;;;1.80;0.90;;;;;;;-145.69;57.96;52280.00;5116881;28;20209;-80
2023/11/04 02:13:16;;;;;;;1.70;0.80;;;;;;;-145.69;58.09;52270.13;5116715;28;20201;-79
2023/11/04 02:15:44;;;;;;;1.47;0.70;;;;;;;-145.69;57.71;52289.91;5116605;28;20209;-80
2023/11/04 02:18:11;;;;;;;1.87;0.90;;;;;;;-145.69;57.77;52248.34;5116510;28;20225;-79
2023/11/04 02:20:39;;;;;;;3.03;0.73;;;;;;;-145.69;57.82;52270.13;5116476;28;20200;-81
2023/11/04 02:23:07;;;;;;;0.60;0.60;;;;;;;-145.69;57.50;52278.03;5116683;28;20201;-80
2023/11/04 02:25:34;;;;;;;2.40;0.70;;;;;;;-145.69;57.33;52270.13;5116077;28;20251;-80
2023/11/04 02:28:01;;;;;;;2.07;0.80;;;;;;;-145.69;57.10;52280.00;5116272;28;20698;-79
2023/11/04 02:30:28;;;;;;;1.20;0.80;;;;;;;-145.69;57.43;52289.91;5116335;28;20209;-83
2023/11/04 02:32:54;;;;;;;1.07;0.60;;;;;;;-145.69;57.27;52266.16;5116493;28;20201;-80
2023/11/04 02:35:21;;;;;;;1.20;0.70;;;;;;;-145.69;57.05;52285.97;5116505;28;20201;-80
2023/11/04 02:37:50;;;;;;;0.87;0.70;;;;;;;-145.69;56.57;52303.78;5116331;28;20230;-80
2023/11/04 02:40:18;;;;;;;1.03;0.67;;;;;;;-145.69;56.50;52252.28;5116632;28;20198;-80
2023/11/04 02:42:44;;;;;;;0.80;0.80;;;;;;;-145.69;56.04;52256.25;5116348;28;20526;-80
2023/11/04 02:45:11;;;;;;;1.20;0.70;;;;;;;-145.69;55.84;52254.28;5116442;28;20203;-81
2023/11/04 02:47:38;;;;;;;0.83;0.73;;;;;;;-145.69;55.62;52285.97;5116259;28;20258;-80
2023/11/04 02:50:05;;;;;;;0.60;0.60;;;;;;;-145.69;55.62;52236.44;5115946;28;20205;-80
2023/11/04 02:52:31;;;;;;;0.70;0.70;;;;;;;-145.69;55.23;52256.25;5116060;28;20198;-80
2023/11/04 02:54:58;;;;;;;1.27;0.70;;;;;;;-145.69;55.49;52282.00;5116092;28;20204;-80
2023/11/04 02:57:25;;;;;;;0.60;0.60;;;;;;;-145.69;55.58;52282.00;5115265;28;20217;-79
2023/11/04 02:59:52;;;;;;;0.67;0.67;;;;;;;-145.69;55.49;52266.16;5116128;28;20204;-80
2023/11/04 03:02:19;;;;;;;0.70;0.70;;;;;;;-145.69;56.07;52234.47;5115781;28;20206;-80
2023/11/04 03:04:45;;;;;;;0.60;0.60;;;;;;;-145.69;56.11;52278.03;5115516;28;20194;-80
2023/11/04 03:07:12;;;;;;;0.93;0.77;;;;;;;-145.69;56.18;52258.22;5115655;28;20233;-79
2023/11/04 03:09:38;;;;;;;0.90;0.80;;;;;;;-145.69;56.01;52295.84;5115679;28;20197;-82
2023/11/04 03:12:05;;;;;;;2.70;0.70;;;;;;;-145.69;56.23;52287.94;5115751;28;20194;-80
2023/11/04 03:14:33;;;;;;;1.27;0.90;;;;;;;-145.69;56.65;52260.22;5115544;28;20204;-80
2023/11/04 03:16:59;;;;;;;1.50;1.00;;;;;;;-145.69;56.58;52270.13;5114545;28;20201;-80
2023/11/04 03:19:26;;;;;;;1.40;1.00;;;;;;;-145.69;57.46;52270.13;5115318;28;20193;-80
2023/11/04 03:21:56;;;;;;;1.20;0.90;;;;;;;-145.69;58.38;52280.00;5113888;28;20446;-79
2023/11/04 03:24:22;;;;;;;1.47;1.10;;;;;;;-145.69;58.23;52280.00;5115383;28;20202;-81
2023/11/04 03:26:49;;;;;;;2.80;1.03;;;;;;;-145.69;58.21;52307.75;5115106;28;20197;-80
2023/11/04 03:29:15;;;;;;;2.03;0.77;;;;;;;-145.69;58.53;52256.25;5115458;28;20193;-82
2023/11/04 03:31:43;;;;;;;1.83;1.03;;;;;;;-145.69;58.87;52246.34;5115352;28;20193;-82
2023/11/04 03:34:10;;;;;;;1.30;1.10;;;;;;;-145.69;58.88;52280.00;5115215;28;20204;-80
2023/11/04 03:36:36;;;;;;;1.90;0.93;;;;;;;-145.69;59.03;52262.19;5115095;28;20729;-80
2023/11/04 03:39:03;;;;;;;1.20;1.10;;;;;;;-145.69;58.23;52266.16;5114586;28;20229;-80
2023/11/04 03:41:30;;;;;;;1.50;1.10;;;;;;;-145.69;58.00;52270.13;5115033;28;20229;-80
2023/11/04 03:43:56;;;;;;;1.10;1.00;;;;;;;-145.69;58.38;52301.81;5115076;28;20193;-80
2023/11/04 03:46:23;;;;;;;1.00;0.90;;;;;;;-145.69;58.82;52250.31;5114901;28;20205;-80
2023/11/04 03:48:50;;;;;;;0.90;0.90;;;;;;;-145.69;59.05;52293.88;5114480;28;20212;-80
2023/11/04 03:51:17;;;;;;;0.80;0.80;;;;;;;-145.69;59.51;52305.75;5114860;28;20568;-80
2023/11/04 03:53:43;;;;;;;1.80;0.90;;;;;;;-145.69;59.42;52285.97;5114610;28;20209;-80
2023/11/04 03:56:10;;;;;;;0.93;0.80;;;;;;;-145.69;59.46;52276.06;5114940;28;20194;-80
2023/11/04 03:58:36;;;;;;;0.80;0.80;;;;;;;-145.69;59.24;52270.13;5114330;28;20221;-81
2023/11/04 04:01:03;;;;;;;1.80;0.70;;;;;;;-145.69;59.12;52282.00;5113435;27;20204;-79
2023/11/04 04:03:30;;;;;;;1.03;0.80;;;;;;;-145.69;58.55;52285.97;5114402;28;20209;-80
2023/11/04 04:05:57;;;;;;;0.93;0.77;;;;;;;-145.69;58.48;52274.06;5114432;28;20229;-80
2023/11/04 04:08:24;;;;;;;0.80;0.70;;;;;;;-145.69;58.48;52254.28;5114534;28;20201;-80
2023/11/04 04:10:50;;;;;;;1.00;0.70;;;;;;;-145.69;58.12;52303.78;5114422;28;20201;-81
2023/11/04 04:13:17;;;;;;;0.80;0.80;;;;;;;-145.69;57.94;52256.25;5114321;28;20668;-81
2023/11/04 04:15:43;;;;;;;0.67;0.67;;;;;;;-145.69;57.74;52274.06;5114440;28;20287;-79
2023/11/04 04:18:10;;;;;;;1.53;0.80;;;;;;;-145.69;57.77;52278.03;5114019;28;20308;-80
2023/11/04 04:20:36;;;;;;;0.90;0.80;;;;;;;-145.69;58.74;52305.75;5114633;28;20193;-80
2023/11/04 04:23:04;;;;;;;0.80;0.80;;;;;;;-145.69;58.05;52303.78;5113995;28;20656;-81
2023/11/04 04:25:31;;;;;;;1.10;1.00;;;;;;;-145.69;57.68;52274.06;5114220;28;20960;-81
2023/11/04 04:27:57;;;;;;;2.33;1.10;;;;;;;-145.69;57.85;52272.09;5113362;28;20209;-80
2023/11/04 04:30:24;;;;;;;1.00;0.90;;;;;;;-145.69;58.35;52282.00;5114412;28;20209;-81
2023/11/04 04:32:50;;;;;;;0.90;0.80;;;;;;;-145.69;58.61;52274.06;5114009;28;20668;-82
2023/11/04 04:35:16;;;;;;;1.93;1.03;;;;;;;-145.69;59.15;52250.31;5114104;28;20209;-81
2023/11/04 04:37:43;;;;;;;1.00;0.70;;;;;;;-145.69;58.28;52297.84;5113852;28;20672;-81
2023/11/04 04:40:12;;;;;;;1.10;1.00;;;;;;;-145.69;57.63;52280.00;5113977;28;20197;-79
2023/11/04 04:42:39;;;;;;;5.33;1.00;;;;;;;-145.69;57.87;52289.91;5113987;28;20292;-81
2023/11/04 04:45:06;;;;;;;2.70;0.97;;;;;;;-145.69;58.32;52299.81;5113166;28;20243;-81
2023/11/04 04:47:33;;;;;;;1.27;0.90;;;;;;;-145.69;58.05;52299.81;5113839;28;20204;-80
2023/11/04 04:49:59;;;;;;;0.80;0.80;;;;;;;-145.69;57.87;52282.00;5113757;28;20338;-80
2023/11/04 04:52:26;;;;;;;1.57;1.00;;;;;;;-145.69;58.16;52301.81;5113532;28;20204;-80
2023/11/04 04:54:52;;;;;;;1.00;0.90;;;;;;;-145.69;57.42;52274.06;5113622;28;20212;-81
2023/11/04 04:57:20;;;;;;;0.63;0.63;;;;;;;-145.69;58.19;52303.78;5113484;28;20197;-82
2023/11/04 04:59:46;;;;;;;0.93;0.80;;;;;;;-145.69;58.40;52285.97;5113293;28;20699;-80
2023/11/04 05:02:13;;;;;;;0.93;0.90;;;;;;;-145.69;58.52;52274.06;5113724;28;20683;-80
2023/11/04 05:04:39;;;;;;;1.83;0.80;;;;;;;-145.69;58.11;52295.84;5113493;28;20218;-81
2023/11/04 05:07:06;;;;;;;1.37;0.80;;;;;;;-145.69;58.02;52266.16;5113534;28;20254;-81
2023/11/04 05:09:32;;;;;;;1.23;0.70;;;;;;;-145.69;57.96;52297.84;5113750;28;20216;-80
2023/11/04 05:11:59;;;;;;;0.80;0.80;;;;;;;-145.69;57.95;52272.09;5113565;28;20198;-80
2023/11/04 05:14:27;;;;;;;2.33;0.80;;;;;;;-145.69;57.56;52256.25;5112819;28;20670;-80
2023/11/04 05:16:53;;;;;;;1.10;1.00;;;;;;;-145.69;57.24;52272.09;5113079;28;20186;-81
2023/11/04 05:19:20;;;;;;;0.97;0.80;;;;;;;-145.69;57.48;52285.97;5100848;28;20216;-81
2023/11/04 05:21:47;;;;;;;1.73;0.70;;;;;;;-145.69;57.17;52274.06;5113330;28;20616;-80
2023/11/04 05:24:13;;;;;;;0.77;0.77;;;;;;;-145.69;56.86;52293.88;5113562;28;20210;-82
2023/11/04 05:26:40;;;;;;;1.57;0.87;;;;;;;-145.69;56.80;52278.03;5113600;28;20208;-83
2023/11/04 05:29:08;;;;;;;1.17;0.87;;;;;;;-145.69;57.55;52270.13;5112912;28;20193;-83
2023/11/04 05:31:36;;;;;;;0.70;0.70;;;;;;;-145.69;57.38;52270.13;5113452;28;20199;-82
2023/11/04 05:34:02;;;;;;;0.90;0.70;;;;;;;-145.69;57.94;52276.06;5112861;28;20212;-83
2023/11/04 05:36:29;;;;;;;1.20;0.90;;;;;;;-145.69;57.45;52278.03;5113141;28;20193;-82
2023/11/04 05:38:56;;;;;;;0.70;0.70;;;;;;;-145.69;57.38;52321.59;5113167;28;20232;-83
2023/11/04 05:41:22;;;;;;;0.90;0.73;;;;;;;-145.69;57.53;52289.91;5117375;28;20207;-81
2023/11/04 05:43:49;;;;;;;1.23;0.90;;;;;;;-145.69;58.38;52250.31;5116954;28;20189;-82
2023/11/04 05:46:15;;;;;;;0.83;0.83;;;;;;;-145.69;58.34;52266.16;5117253;28;20193;-82
2023/11/04 05:48:43;;;;;;;4.20;1.00;;;;;;;-145.69;58.96;52274.06;5117396;28;20205;-82
2023/11/04 05:51:11;;;;;;;1.50;1.00;;;;;;;-145.69;58.41;52268.13;5117474;28;20204;-83
2023/11/04 05:53:37;;;;;;;0.93;0.80;;;;;;;-145.69;57.80;52282.00;5117227;28;20202;-83
2023/11/04 05:56:04;;;;;;;2.00;0.93;;;;;;;-145.69;57.55;52289.91;5117146;28;20204;-83
2023/11/04 05:58:31;;;;;;;1.23;0.93;;;;;;;-145.69;57.88;52266.16;5116908;28;20692;-82
2023/11/04 06:00:57;;;;;;;2.23;1.07;;;;;;;-145.69;58.54;52283.97;5117008;28;20552;-82
2023/11/04 06:03:24;;;;;;;0.80;0.80;;;;;;;-145.69;58.36;52234.47;5117076;28;20205;-82
2023/11/04 06:05:52;;;;;;;1.33;1.00;;;;;;;-145.69;58.56;52301.81;5116850;28;20221;-83
2023/11/04 06:08:20;;;;;;;1.23;0.90;;;;;;;-145.69;58.46;52248.34;5115736;28;20321;-83
2023/11/04 06:10:46;;;;;;;1.10;0.80;;;;;;;-145.69;57.97;52313.69;5116869;28;20202;-82
2023/11/04 06:13:13;;;;;;;1.23;0.90;;;;;;;-145.69;57.58;52280.00;5116510;28;20312;-82
2023/11/04 06:15:39;;;;;;;2.60;0.90;;;;;;;-145.69;57.75;52270.13;5116471;28;20205;-82
2023/11/04 06:18:06;;;;;;;1.40;1.03;;;;;;;-145.69;57.66;52309.72;5116538;28;20620;-82
2023/11/04 06:20:32;;;;;;;1.15;0.70;;;;;;;-145.69;58.14;52274.06;5116274;28;20438;-82
2023/11/04 06:23:00;;;;;;;1.00;0.83;;;;;;;-145.69;58.31;52258.22;5116827;28;20193;-83
2023/11/04 06:25:27;;;;;;;0.93;0.70;;;;;;;-145.69;58.08;52258.22;5116451;28;20568;-83
2023/11/04 06:27:54;;;;;;;2.93;0.83;;;;;;;-145.69;58.31;52293.88;5116616;28;20220;-83
2023/11/04 06:30:20;;;;;;;4.13;0.90;;;;;;;-145.69;58.31;52282.00;5116726;28;20217;-82
2023/11/04 06:32:47;;;;;;;0.60;0.60;;;;;;;-145.69;57.81;52319.63;5116407;28;20614;-82
2023/11/04 06:35:13;;;;;;;1.17;0.80;;;;;;;-145.69;57.88;52282.00;5116294;28;20656;-82
2023/11/04 06:37:41;;;;;;;0.80;0.80;;;;;;;-145.69;58.67;52307.75;5116443;28;20197;-82
2023/11/04 06:40:09;;;;;;;1.80;0.93;;;;;;;-145.69;58.50;52268.13;5116209;28;20221;-82
2023/11/04 06:42:36;;;;;;;1.50;1.10;;;;;;;-145.69;58.24;52291.91;5116185;28;20556;-82
2023/11/04 06:45:02;;;;;;;1.20;1.10;;;;;;;-145.69;58.74;52289.91;5115698;28;20221;-82
2023/11/04 06:47:29;;;;;;;1.17;1.00;;;;;;;-145.69;58.95;52256.25;5115997;28;20194;-82
2023/11/04 06:49:55;;;;;;;1.37;1.00;;;;;;;-145.69;58.79;52274.06;5116093;28;20220;-82
2023/11/04 06:52:22;;;;;;;1.30;1.20;;;;;;;-145.69;59.04;52282.00;5115112;28;20197;-83
2023/11/04 06:54:48;;;;;;;1.73;1.10;;;;;;;-145.69;58.89;52285.97;5116100;28;20198;-82
2023/11/04 06:57:16;;;;;;;1.27;1.03;;;;;;;-145.69;58.98;52270.13;5115957;28;20227;-82
2023/11/04 06:59:43;;;;;;;2.27;1.10;;;;;;;-145.69;59.09;52305.75;5115872;28;20232;-82
2023/11/04 07:02:09;;;;;;;1.87;1.47;;;;;;;-145.69;59.64;52289.91;5115960;28;20201;-82
2023/11/04 07:04:36;;;;;;;2.33;1.50;;;;;;;-145.69;58.56;52289.91;5115886;28;20541;-82
2023/11/04 07:07:03;;;;;;;2.47;1.30;;;;;;;-145.69;58.63;52283.97;5115628;28;20233;-81
2023/11/04 07:09:29;;;;;;;1.40;1.30;;;;;;;-145.69;58.79;52327.53;5115745;28;20197;-82
2023/11/04 07:11:55;;;;;;;1.70;1.13;;;;;;;-145.69;58.63;52293.88;5115881;28;20219;-82
2023/11/04 07:14:24;;;;;;;1.70;1.33;;;;;;;-145.69;58.76;52285.97;5115128;28;20232;-82
2023/11/04 07:16:51;;;;;;;1.40;1.30;;;;;;;-145.69;58.91;52272.09;5115694;28;20246;-82
2023/11/04 07:19:17;;;;;;;1.53;1.10;;;;;;;-145.69;58.69;52270.13;5114974;28;20224;-82
2023/11/04 07:21:45;;;;;;;1.70;1.07;;;;;;;-145.69;59.18;52305.75;5115527;28;20208;-83
2023/11/04 07:24:12;;;;;;;2.10;1.27;;;;;;;-145.69;58.56;52285.97;5115385;28;20206;-82
2023/11/04 07:26:38;;;;;;;3.03;1.20;;;;;;;-145.69;58.81;52262.19;5115654;28;20201;-82
2023/11/04 07:29:06;;;;;;;1.20;1.10;;;;;;;-145.69;58.73;52299.81;5115362;28;20200;-82
2023/11/04 07:31:35;;;;;;;3.93;1.13;;;;;;;-145.69;58.81;52270.13;5115019;28;20764;-82
2023/11/04 07:34:02;;;;;;;1.23;0.90;;;;;;;-145.69;58.65;52305.75;5113150;28;20190;-83
2023/11/04 07:36:28;;;;;;;2.27;1.37;;;;;;;-145.69;57.89;52313.69;5115234;28;20200;-82
2023/11/04 07:38:55;;;;;;;1.70;0.93;;;;;;;-145.69;57.65;52274.06;5115283;28;20225;-83
2023/11/04 07:41:22;;;;;;;0.87;0.87;;;;;;;-145.69;58.31;52287.94;5115464;28;20198;-83
2023/11/04 07:43:49;;;;;;;3.43;1.10;;;;;;;-145.69;57.77;52305.75;5114475;28;20189;-83
2023/11/04 07:46:15;;;;;;;2.47;1.27;;;;;;;-145.69;57.54;52305.75;5114959;28;20262;-82
2023/11/04 07:48:43;;;;;;;1.13;1.03;;;;;;;-145.69;57.85;52264.16;5114914;28;20197;-83
2023/11/04 07:51:10;;;;;;;1.23;1.13;;;;;;;-145.69;57.13;52274.06;5114945;28;20666;-83
2023/11/04 07:53:37;;;;;;;1.30;1.07;;;;;;;-145.69;57.34;52282.00;5115018;28;20201;-83
2023/11/04 07:56:04;;;;;;;1.20;1.10;;;;;;;-145.69;56.82;52254.28;5115010;28;20663;-83
2023/11/04 07:58:31;;;;;;;1.10;1.00;;;;;;;-145.69;56.16;52254.28;5114864;28;20198;-83
2023/11/04 08:00:57;;;;;;;1.13;0.90;;;;;;;-145.69;56.20;52262.19;5114733;28;20656;-82
2023/11/04 08:03:24;;;;;;;0.97;0.80;;;;;;;-145.69;55.63;52289.91;5114811;28;20534;-83
2023/11/04 08:05:52;;;;;;;1.00;0.90;;;;;;;-145.69;54.94;52270.13;5102638;28;20236;-83
2023/11/04 08:08:19;;;;;;;1.00;0.90;;;;;;;-145.69;54.10;52256.25;5094228;28;20650;-83
2023/11/04 08:10:46;;;;;;;0.80;0.80;;;;;;;-145.69;54.10;52264.16;5094452;28;20225;-83
2023/11/04 08:13:12;;;;;;;1.13;0.80;;;;;;;-145.69;53.77;52266.16;5094428;28;20683;-83
2023/11/04 08:15:39;;;;;;;1.00;0.90;;;;;;;-145.69;53.18;52242.38;5113717;28;20201;-82
2023/11/04 08:18:06;;;;;;;1.57;0.83;;;;;;;-145.69;52.79;52230.50;5114006;28;20194;-83
2023/11/04 08:20:32;;;;;;;0.70;0.63;;;;;;;-145.69;52.52;52262.19;5114733;28;20235;-83
2023/11/04 08:23:00;;;;;;;0.80;0.73;;;;;;;-145.69;51.68;52254.28;5113633;28;20660;-83
2023/11/04 08:25:27;;;;;;;0.60;0.60;;;;;;;-145.69;51.56;52238.44;5113638;28;20643;-82
2023/11/04 08:27:53;;;;;;;0.70;0.63;;;;;;;-145.69;51.25;52226.53;5113985;28;20198;-82
2023/11/04 08:30:20;;;;;;;1.23;0.93;;;;;;;-145.69;50.88;52240.41;5114200;28;20197;-83
2023/11/04 08:32:46;;;;;;;1.03;0.77;;;;;;;-145.69;51.11;52222.59;5113953;28;20201;-83
2023/11/04 08:35:13;;;;;;;2.13;0.90;;;;;;;-145.69;49.73;52234.47;5114386;28;20667;-82
2023/11/04 08:37:39;;;;;;;0.97;0.83;;;;;;;-145.69;50.42;52236.44;5114091;28;20212;-82
2023/11/04 08:40:08;;;;;;;1.00;0.90;;;;;;;-145.69;50.74;52228.53;5113813;28;20225;-82
2023/11/04 08:42:36;;;;;;;1.00;0.90;;;;;;;-145.69;49.82;52238.44;5113972;28;20200;-82
2023/11/04 08:45:02;;;;;;;0.90;0.70;;;;;;;-145.69;49.22;52226.53;5109772;28;20228;-82
2023/11/04 08:47:29;;;;;;;0.50;0.50;;;;;;;-145.69;49.37;52250.31;5113798;28;20280;-82
2023/11/04 08:49:55;;;;;;;0.70;0.70;;;;;;;-145.69;49.63;52240.41;5113681;28;20201;-82
2023/11/04 08:52:22;;;;;;;1.00;0.60;;;;;;;-145.69;50.28;52264.16;5113762;28;20203;-82
2023/11/04 08:54:48;;;;;;;0.73;0.70;;;;;;;-145.69;50.23;52242.38;5109463;28;20193;-82
2023/11/04 08:57:16;;;;;;;0.83;0.60;;;;;;;-145.69;49.15;52242.38;5113445;28;20200;-82
2023/11/04 08:59:43;;;;;;;0.70;0.70;;;;;;;-145.69;49.76;52244.38;5113237;28;20232;-82
2023/11/04 09:02:09;;;;;;;0.50;0.50;;;;;;;-145.69;48.62;52230.50;5113024;28;20201;-82
2023/11/04 09:04:36;;;;;;;0.73;0.70;;;;;;;-145.69;48.70;52236.44;5113454;28;20197;-82
2023/11/04 09:07:03;;;;;;;1.50;0.70;;;;;;;-145.69;48.76;52234.47;5113185;28;20224;-83
2023/11/04 09:09:30;;;;;;;1.10;0.60;;;;;;;-145.69;48.43;52218.63;5113406;28;20251;-82
2023/11/04 09:11:56;;;;;;;0.80;0.70;;;;;;;-145.69;48.51;52230.50;5113512;28;20207;-82
2023/11/04 09:14:25;;;;;;;0.70;0.70;;;;;;;-145.69;47.46;52216.66;5110619;28;20655;-81
2023/11/04 09:16:52;;;;;;;2.00;0.80;;;;;;;-145.69;46.65;52214.66;5101632;28;20196;-81
2023/11/04 09:19:18;;;;;;;1.73;0.80;;;;;;;-145.69;46.61;52206.75;5113132;28;20676;-81
2023/11/04 09:21:45;;;;;;;0.63;0.63;;;;;;;-145.69;46.60;52238.44;5113104;28;20655;-82
2023/11/04 09:24:12;;;;;;;0.70;0.70;;;;;;;-145.69;46.00;52238.44;5113206;28;20552;-82
2023/11/04 09:26:38;;;;;;;1.23;0.93;;;;;;;-145.69;45.89;52210.72;5112982;28;20189;-83
2023/11/04 09:29:05;;;;;;;2.00;0.90;;;;;;;-145.69;46.16;52196.84;5113196;28;20201;-83
2023/11/04 09:31:33;;;;;;;0.80;0.67;;;;;;;-145.69;45.92;52186.94;5113369;28;20204;-83
2023/11/04 09:33:59;;;;;;;1.10;0.80;;;;;;;-145.69;46.45;52220.59;5112733;28;20194;-83
2023/11/04 09:36:26;;;;;;;1.33;0.80;;;;;;;-145.69;46.02;52210.72;5112673;28;20667;-83
2023/11/04 09:38:53;;;;;;;1.60;0.90;;;;;;;-145.69;45.16;52192.88;5112875;28;20201;-83
2023/11/04 09:41:19;;;;;;;0.60;0.60;;;;;;;-145.69;45.83;52182.97;5112661;28;20688;-83
2023/11/04 09:43:46;;;;;;;2.47;1.00;;;;;;;-145.69;45.64;52202.78;5112682;28;20248;-83
2023/11/04 09:46:13;;;;;;;0.70;0.70;;;;;;;-145.69;45.03;52173.09;5093750;28;20195;-83
2023/11/04 09:48:41;;;;;;;0.87;0.80;;;;;;;-145.69;44.71;52177.03;5112954;28;20208;-83
2023/11/04 09:51:12;;;;;;;3.40;0.80;;;;;;;-145.69;45.43;52200.81;5112960;28;20204;-82
2023/11/04 09:53:43;;;;;;;0.47;0.47;;;;;;;-145.69;44.29;52161.19;5092834;28;20565;-83
2023/11/04 09:56:10;;;;;;;2.80;0.87;;;;;;;-145.69;44.36;52181.00;5092650;28;20198;-82
2023/11/04 09:58:39;;;;;;;1.27;0.60;;;;;;;-145.69;43.57;52182.97;5108795;28;20649;-82
2023/11/04 10:01:06;;;;;;;1.00;0.80;;;;;;;-145.69;43.51;52163.19;5112675;28;20703;-82
2023/11/04 10:03:33;;;;;;;1.15;0.63;;;;;;;-145.69;43.35;52190.91;5112492;28;20216;-83
2023/11/04 10:06:00;;;;;;;0.55;0.55;;;;;;;-145.69;43.14;52173.09;5112556;28;20228;-83
2023/11/04 10:08:27;;;;;;;1.10;0.52;;;;;;;-145.69;43.39;52182.97;5112739;28;20660;-83
2023/11/04 10:10:54;;;;;;;0.82;0.68;;;;;;;-145.69;43.63;52181.00;5112567;28;20212;-82
2023/11/04 10:13:20;;;;;;;1.10;0.70;;;;;;;-145.69;43.24;52165.16;5112109;28;20197;-83
2023/11/04 10:15:47;;;;;;;1.23;0.70;;;;;;;-145.69;41.88;52157.25;5112247;28;20668;-82
2023/11/04 10:18:14;;;;;;;2.78;0.80;;;;;;;-145.69;41.91;52190.91;5112587;28;20201;-82
2023/11/04 10:20:41;;;;;;;0.75;0.55;;;;;;;-145.69;42.36;52198.81;5113325;28;20231;-81
2023/11/04 10:23:09;;;;;;;0.83;0.57;;;;;;;-145.69;42.30;52192.88;5112904;28;20198;-82
2023/11/04 10:25:36;;;;;;;1.43;0.93;;;;;;;-145.69;41.93;52179.03;5113291;28;20198;-82
2023/11/04 10:28:02;;;;;;;1.38;0.98;;;;;;;-145.69;41.54;52202.78;5117107;28;20688;-81
2023/11/04 10:30:29;;;;;;;1.40;0.70;;;;;;;-145.69;41.73;52190.91;5117131;28;20644;-80
2023/11/04 10:32:57;;;;;;;1.00;0.70;;;;;;;-145.69;42.19;52143.38;5116526;28;20204;-81
2023/11/04 10:35:26;;;;;;;1.37;0.73;;;;;;;-145.69;42.36;52202.78;5096121;28;20197;-80
2023/11/04 10:37:57;;;;;;;2.15;0.60;;;;;;;-145.69;42.20;52200.81;5095981;28;20596;-80
2023/11/04 10:40:26;;;;;;;1.03;0.70;;;;;;;-145.69;41.91;52179.03;5099304;28;20316;-81
2023/11/04 10:42:58;;;;;;;0.60;0.50;;;;;;;-145.69;41.03;52186.94;5098565;28;20549;-81
2023/11/04 10:45:31;;;;;;;0.50;0.50;;;;;;;-145.69;41.31;52161.19;5117780;28;20284;-81
2023/11/04 10:48:00;;;;;;;0.53;0.50;;;;;;;-145.69;40.27;52179.03;5119481;28;20750;-81
2023/11/04 10:50:32;;;;;;;0.50;0.50;;;;;;;-145.69;40.41;52153.28;5117663;28;20549;-80
2023/11/04 10:53:11;;;;;;;0.63;0.43;;;;;;;-145.69;39.59;52179.03;5117272;28;20210;-83
2023/11/04 10:55:47;;;;;;;0.43;0.43;;;;;;;-145.69;39.92;52161.19;5116649;28;20193;-81
2023/11/04 10:58:20;;;;;;;1.00;0.40;;;;;;;-145.69;40.29;52151.28;5117607;28;20308;-82
2023/11/04 11:00:47;;;;;;;1.08;0.63;;;;;;;-145.69;40.96;52171.09;5104304;27;20343;-81
2023/11/04 11:03:15;;;;;;;1.60;0.50;;;;;;;-145.69;41.03;52184.97;5115644;28;20197;-83
2023/11/04 11:05:42;;;;;;;0.50;0.50;;;;;;;-145.69;41.18;52147.34;5116869;28;20560;-82
2023/11/04 11:08:12;;;;;;;0.65;0.50;;;;;;;-145.69;41.17;52200.81;5116521;28;20210;-81
2023/11/04 11:10:46;;;;;;;0.80;0.55;;;;;;;-145.69;41.26;52171.09;5117303;28;20201;-82
2023/11/04 11:13:20;;;;;;;0.80;0.57;;;;;;;-145.69;40.65;52143.38;5116436;28;20200;-82
2023/11/04 11:15:48;;;;;;;0.40;0.40;;;;;;;-145.69;40.00;52127.53;5116228;28;20201;-82